createdAt,value
2018-05-15T00:00:21.641Z,13.76
2018-05-15T00:01:21.572Z,13.78
2018-05-15T00:02:21.492Z,13.61
2018-05-15T00:03:21.423Z,13.59
2018-05-15T00:04:21.343Z,13.59
2018-05-15T00:05:21.277Z,13.48
2018-05-15T00:06:21.193Z,13.41
2018-05-15T00:07:21.131Z,13.33
2018-05-15T00:08:21.045Z,13.36
2018-05-15T00:09:20.988Z,13.32
2018-05-15T00:10:20.899Z,13.33
2018-05-15T00:11:20.838Z,13.25
2018-05-15T00:12:20.755Z,13.33
2018-05-15T00:13:20.681Z,13.38
2018-05-15T00:14:20.603Z,13.38
2018-05-15T00:15:20.536Z,13.40
2018-05-15T00:16:20.455Z,13.40
2018-05-15T00:17:20.388Z,13.45
2018-05-15T00:18:20.310Z,13.38
2018-05-15T00:19:20.236Z,13.44
2018-05-15T00:20:20.157Z,13.47
2018-05-15T00:21:20.091Z,13.45
2018-05-15T00:22:20.003Z,13.38
2018-05-15T00:23:19.941Z,13.41
2018-05-15T00:24:19.857Z,13.45
2018-05-15T00:25:19.791Z,13.48
2018-05-15T00:26:19.709Z,13.44
2018-05-15T00:27:19.643Z,13.33
2018-05-15T00:28:19.556Z,13.11
2018-05-15T00:29:19.501Z,13.10
2018-05-15T00:30:19.416Z,13.00
2018-05-15T00:31:19.347Z,13.03
2018-05-15T00:32:19.262Z,13.03
2018-05-15T00:33:19.198Z,12.99
2018-05-15T00:34:19.117Z,13.10
2018-05-15T00:35:19.049Z,12.97
2018-05-15T00:36:18.964Z,12.86
2018-05-15T00:37:19.896Z,12.86
2018-05-15T00:38:18.821Z,12.91
2018-05-15T00:39:18.758Z,12.85
2018-05-15T00:40:18.669Z,12.86
2018-05-15T00:41:18.599Z,12.85
2018-05-15T00:42:18.522Z,12.85
2018-05-15T00:43:18.450Z,12.96
2018-05-15T00:44:18.399Z,13.00
2018-05-15T00:45:18.302Z,12.97
2018-05-15T00:46:18.222Z,12.96
2018-05-15T00:47:18.150Z,13.03
2018-05-15T00:48:18.067Z,13.19
2018-05-15T00:49:18.003Z,13.00
2018-05-15T00:50:17.920Z,13.00
2018-05-15T00:51:17.849Z,12.89
2018-05-15T00:52:17.770Z,12.84
2018-05-15T00:53:17.702Z,12.86
2018-05-15T00:54:17.622Z,12.86
2018-05-15T00:55:17.557Z,12.94
2018-05-15T00:56:17.471Z,12.96
2018-05-15T00:57:17.403Z,12.82
2018-05-15T00:58:17.322Z,12.99
2018-05-15T00:59:17.256Z,13.00
2018-05-15T01:00:17.171Z,13.09
2018-05-15T01:01:17.104Z,13.04
2018-05-15T01:02:17.025Z,13.07
2018-05-15T01:03:16.954Z,13.07
2018-05-15T01:04:16.871Z,12.97
2018-05-15T01:05:16.808Z,12.91
2018-05-15T01:06:16.730Z,12.84
2018-05-15T01:07:16.658Z,12.73
2018-05-15T01:08:16.572Z,12.78
2018-05-15T01:09:16.509Z,12.79
2018-05-15T01:10:16.420Z,12.78
2018-05-15T01:11:16.353Z,12.85
2018-05-15T01:12:16.274Z,12.82
2018-05-15T01:13:16.210Z,12.91
2018-05-15T01:14:16.126Z,12.97
2018-05-15T01:15:16.057Z,12.88
2018-05-15T01:16:15.994Z,12.97
2018-05-15T01:17:15.910Z,13.03
2018-05-15T01:18:15.825Z,12.99
2018-05-15T01:19:15.758Z,12.88
2018-05-15T01:20:15.682Z,12.89
2018-05-15T01:21:15.617Z,12.85
2018-05-15T01:22:15.529Z,12.71
2018-05-15T01:23:15.460Z,12.59
2018-05-15T01:24:15.375Z,12.56
2018-05-15T01:25:15.308Z,12.55
2018-05-15T01:26:15.224Z,12.55
2018-05-15T01:27:15.160Z,12.60
2018-05-15T01:28:15.079Z,12.55
2018-05-15T01:29:15.009Z,12.63
2018-05-15T01:30:14.929Z,12.52
2018-05-15T01:31:14.859Z,12.53
2018-05-15T01:32:14.775Z,12.61
2018-05-15T01:33:14.710Z,12.59
2018-05-15T01:34:14.627Z,12.59
2018-05-15T01:35:14.558Z,12.59
2018-05-15T01:36:14.476Z,12.60
2018-05-15T01:37:14.406Z,12.46
2018-05-15T01:38:14.333Z,12.44
2018-05-15T01:39:14.257Z,12.46
2018-05-15T01:40:14.187Z,12.30
2018-05-15T01:41:14.107Z,12.31
2018-05-15T01:42:14.026Z,12.21
2018-05-15T01:43:13.958Z,12.18
2018-05-15T01:44:13.880Z,12.12
2018-05-15T01:45:14.811Z,12.23
2018-05-15T01:46:13.726Z,12.16
2018-05-15T01:47:13.659Z,12.08
2018-05-15T01:48:13.577Z,12.15
2018-05-15T01:49:13.510Z,12.24
2018-05-15T01:50:13.424Z,12.24
2018-05-15T01:51:13.356Z,12.27
2018-05-15T01:52:13.272Z,12.28
2018-05-15T01:53:13.205Z,12.27
2018-05-15T01:54:13.123Z,12.39
2018-05-15T01:55:13.058Z,12.46
2018-05-15T01:56:12.975Z,12.33
2018-05-15T01:57:12.906Z,12.41
2018-05-15T01:58:12.823Z,12.41
2018-05-15T01:59:12.758Z,12.46
2018-05-15T02:00:12.671Z,12.31
2018-05-15T02:01:12.606Z,12.24
2018-05-15T02:02:12.523Z,12.28
2018-05-15T02:03:12.454Z,12.24
2018-05-15T02:04:12.371Z,12.15
2018-05-15T02:05:12.301Z,12.16
2018-05-15T02:06:12.218Z,12.11
2018-05-15T02:07:12.162Z,12.03
2018-05-15T02:08:12.069Z,12.09
2018-05-15T02:09:12.005Z,12.08
2018-05-15T02:10:11.922Z,12.00
2018-05-15T02:11:11.849Z,12.00
2018-05-15T02:12:11.771Z,12.11
2018-05-15T02:13:11.701Z,12.12
2018-05-15T02:14:11.620Z,12.16
2018-05-15T02:15:11.549Z,12.08
2018-05-15T02:16:11.503Z,12.13
2018-05-15T02:17:11.399Z,12.15
2018-05-15T02:18:11.317Z,12.21
2018-05-15T02:19:11.249Z,12.21
2018-05-15T02:20:11.170Z,12.26
2018-05-15T02:21:11.101Z,12.30
2018-05-15T02:22:11.017Z,12.33
2018-05-15T02:23:10.947Z,12.41
2018-05-15T02:24:10.867Z,12.36
2018-05-15T02:25:10.800Z,12.30
2018-05-15T02:26:10.714Z,12.41
2018-05-15T02:27:10.647Z,12.42
2018-05-15T02:28:10.568Z,12.44
2018-05-15T02:29:10.500Z,12.41
2018-05-15T02:30:10.421Z,12.49
2018-05-15T02:31:10.346Z,12.53
2018-05-15T02:32:10.270Z,12.44
2018-05-15T02:33:10.196Z,12.44
2018-05-15T02:34:10.116Z,12.63
2018-05-15T02:35:10.043Z,12.63
2018-05-15T02:36:09.962Z,12.51
2018-05-15T02:37:09.899Z,12.52
2018-05-15T02:38:09.813Z,12.53
2018-05-15T02:39:09.762Z,12.53
2018-05-15T02:40:09.662Z,12.55
2018-05-15T02:41:09.595Z,12.59
2018-05-15T02:42:09.511Z,12.51
2018-05-15T02:43:09.442Z,12.45
2018-05-15T02:44:09.361Z,12.44
2018-05-15T02:45:09.300Z,12.44
2018-05-15T02:46:09.209Z,12.44
2018-05-15T02:47:09.140Z,12.42
2018-05-15T02:48:09.060Z,12.27
2018-05-15T02:49:08.997Z,12.19
2018-05-15T02:50:08.913Z,12.11
2018-05-15T02:51:08.846Z,12.11
2018-05-15T02:52:08.758Z,12.13
2018-05-15T02:53:08.681Z,12.05
2018-05-15T02:54:08.669Z,12.11
2018-05-15T02:55:08.536Z,12.15
2018-05-15T02:56:08.458Z,12.13
2018-05-15T02:57:08.380Z,12.18
2018-05-15T02:58:08.400Z,12.18
2018-05-15T02:59:08.234Z,12.30
2018-05-15T03:00:08.167Z,12.31
2018-05-15T03:01:08.080Z,12.42
2018-05-15T03:02:08.116Z,12.45
2018-05-15T03:03:07.929Z,12.46
2018-05-15T03:04:07.926Z,12.53
2018-05-15T03:05:07.782Z,12.59
2018-05-15T03:06:07.731Z,12.60
2018-05-15T03:07:07.637Z,12.61
2018-05-15T03:08:07.677Z,12.51
2018-05-15T03:09:08.124Z,12.59
2018-05-15T03:10:07.448Z,12.52
2018-05-15T03:11:07.323Z,12.55
2018-05-15T03:12:07.357Z,12.59
2018-05-15T03:13:07.181Z,12.64
2018-05-15T03:14:08.067Z,12.61
2018-05-15T03:15:07.020Z,12.60
2018-05-15T03:16:06.978Z,12.56
2018-05-15T03:17:06.873Z,12.59
2018-05-15T03:18:06.884Z,12.56
2018-05-15T03:19:06.727Z,12.56
2018-05-15T03:20:06.694Z,12.55
2018-05-15T03:21:06.570Z,12.61
2018-05-15T03:22:06.603Z,12.66
2018-05-15T03:23:06.419Z,12.69
2018-05-15T03:24:06.414Z,12.74
2018-05-15T03:25:06.275Z,12.85
2018-05-15T03:26:06.223Z,12.96
2018-05-15T03:27:06.120Z,12.86
2018-05-15T03:28:06.056Z,12.97
2018-05-15T03:29:05.970Z,13.03
2018-05-15T03:30:05.952Z,13.00
2018-05-15T03:31:05.819Z,13.04
2018-05-15T03:32:05.751Z,13.15
2018-05-15T03:33:05.668Z,13.19
2018-05-15T03:34:05.662Z,13.22
2018-05-15T03:35:05.521Z,13.22
2018-05-15T03:36:05.470Z,13.25
2018-05-15T03:37:05.370Z,13.24
2018-05-15T03:38:05.382Z,13.24
2018-05-15T03:39:05.217Z,13.19
2018-05-15T03:40:05.205Z,13.27
2018-05-15T03:41:05.066Z,13.27
2018-05-15T03:42:05.098Z,13.24
2018-05-15T03:43:04.915Z,13.33
2018-05-15T03:44:04.914Z,13.27
2018-05-15T03:45:04.768Z,13.25
2018-05-15T03:46:04.718Z,13.32
2018-05-15T03:47:04.614Z,13.38
2018-05-15T03:48:04.633Z,13.29
2018-05-15T03:49:04.465Z,13.36
2018-05-15T03:50:04.438Z,13.33
2018-05-15T03:51:04.312Z,13.40
2018-05-15T03:52:04.343Z,13.41
2018-05-15T03:53:04.164Z,13.44
2018-05-15T03:54:04.159Z,13.41
2018-05-15T03:55:04.014Z,13.44
2018-05-15T03:56:03.968Z,13.40
2018-05-15T03:57:03.865Z,13.40
2018-05-15T03:58:03.877Z,13.41
2018-05-15T03:59:03.712Z,13.43
2018-05-15T04:00:03.691Z,13.43
2018-05-15T04:01:03.565Z,13.41
2018-05-15T04:02:03.596Z,13.45
2018-05-15T04:03:03.419Z,13.48
2018-05-15T04:04:03.406Z,13.40
2018-05-15T04:05:03.262Z,13.44
2018-05-15T04:06:03.213Z,13.45
2018-05-15T04:07:03.113Z,13.37
2018-05-15T04:08:03.125Z,13.44
2018-05-15T04:09:02.960Z,13.36
2018-05-15T04:10:02.932Z,13.44
2018-05-15T04:11:02.941Z,13.47
2018-05-15T04:12:02.845Z,13.43
2018-05-15T04:13:02.663Z,13.44
2018-05-15T04:14:02.655Z,13.47
2018-05-15T04:15:02.514Z,13.45
2018-05-15T04:16:02.464Z,13.43
2018-05-15T04:17:02.365Z,13.40
2018-05-15T04:18:02.375Z,13.38
2018-05-15T04:19:02.259Z,13.41
2018-05-15T04:20:02.184Z,13.41
2018-05-15T04:21:02.062Z,13.38
2018-05-15T04:22:02.089Z,13.36
2018-05-15T04:23:01.911Z,13.24
2018-05-15T04:24:01.850Z,13.21
2018-05-15T04:25:01.761Z,13.25
2018-05-15T04:26:01.710Z,13.22
2018-05-15T04:27:01.614Z,13.21
2018-05-15T04:28:01.701Z,13.19
2018-05-15T04:29:01.462Z,13.18
2018-05-15T04:30:01.425Z,13.19
2018-05-15T04:31:01.313Z,13.25
2018-05-15T04:32:01.341Z,13.21
2018-05-15T04:33:01.245Z,13.27
2018-05-15T04:34:01.147Z,13.24
2018-05-15T04:35:01.047Z,13.27
2018-05-15T04:36:00.943Z,13.27
2018-05-15T04:37:00.863Z,13.19
2018-05-15T04:38:00.796Z,13.27
2018-05-15T04:39:00.712Z,13.14
2018-05-15T04:40:00.675Z,13.14
2018-05-15T04:41:00.559Z,13.03
2018-05-15T04:42:00.591Z,13.04
2018-05-15T04:43:00.412Z,13.00
2018-05-15T04:44:00.527Z,12.96
2018-05-15T04:45:00.261Z,12.94
2018-05-15T04:46:00.206Z,12.89
2018-05-15T04:47:00.110Z,12.96
2018-05-15T04:48:00.113Z,12.88
2018-05-15T04:48:59.960Z,12.88
2018-05-15T04:49:59.922Z,12.85
2018-05-15T04:50:59.813Z,12.82
2018-05-15T04:51:59.743Z,12.82
2018-05-15T04:52:59.659Z,12.79
2018-05-15T04:53:59.721Z,12.71
2018-05-15T04:54:59.511Z,12.73
2018-05-15T04:55:59.452Z,12.77
2018-05-15T04:56:59.360Z,12.73
2018-05-15T04:57:59.363Z,12.79
2018-05-15T04:58:59.209Z,12.70
2018-05-15T04:59:59.171Z,12.71
2018-05-15T05:00:59.060Z,12.67
2018-05-15T05:01:59.072Z,12.69
2018-05-15T05:02:58.913Z,12.70
2018-05-15T05:03:58.891Z,12.79
2018-05-15T05:04:58.757Z,12.81
2018-05-15T05:05:58.800Z,12.78
2018-05-15T05:06:58.609Z,12.70
2018-05-15T05:07:58.610Z,12.77
2018-05-15T05:08:58.463Z,12.88
2018-05-15T05:09:58.420Z,12.88
2018-05-15T05:10:58.305Z,12.86
2018-05-15T05:11:58.237Z,12.94
2018-05-15T05:12:58.160Z,13.03
2018-05-15T05:13:58.138Z,13.00
2018-05-15T05:14:58.002Z,13.07
2018-05-15T05:15:57.938Z,13.15
2018-05-15T05:16:57.857Z,13.21
2018-05-15T05:17:57.858Z,13.24
2018-05-15T05:18:57.707Z,13.28
2018-05-15T05:19:57.666Z,13.37
2018-05-15T05:20:57.581Z,13.41
2018-05-15T05:21:57.587Z,13.47
2018-05-15T05:22:57.408Z,13.45
2018-05-15T05:23:57.390Z,13.41
2018-05-15T05:24:57.259Z,13.55
2018-05-15T05:25:57.296Z,13.58
2018-05-15T05:26:57.105Z,13.61
2018-05-15T05:27:57.107Z,13.61
2018-05-15T05:28:56.956Z,13.59
2018-05-15T05:29:57.011Z,13.62
2018-05-15T05:30:56.809Z,13.66
2018-05-15T05:31:56.924Z,13.66
2018-05-15T05:32:56.656Z,13.89
2018-05-15T05:33:56.735Z,13.76
2018-05-15T05:34:56.543Z,13.84
2018-05-15T05:35:56.643Z,13.99
2018-05-15T05:36:56.357Z,13.95
2018-05-15T05:37:56.281Z,13.98
2018-05-15T05:38:56.360Z,14.05
2018-05-15T05:39:56.131Z,14.13
2018-05-15T05:40:56.271Z,14.10
2018-05-15T05:41:55.982Z,14.13
2018-05-15T05:42:56.079Z,14.14
2018-05-15T05:43:55.837Z,14.31
2018-05-15T05:44:55.886Z,14.32
2018-05-15T05:45:55.684Z,14.36
2018-05-15T05:46:55.798Z,14.34
2018-05-15T05:47:55.527Z,14.34
2018-05-15T05:48:55.609Z,14.35
2018-05-15T05:49:55.387Z,14.35
2018-05-15T05:51:00.365Z,14.35
2018-05-15T05:51:55.245Z,14.41
2018-05-15T05:52:55.330Z,14.41
2018-05-15T05:53:55.087Z,14.38
2018-05-15T05:54:56.160Z,14.52
2018-05-15T05:55:54.931Z,14.54
2018-05-15T05:57:01.806Z,14.59
2018-05-15T05:57:54.790Z,14.64
2018-05-15T05:58:54.855Z,14.72
2018-05-15T05:59:54.632Z,14.79
2018-05-15T06:00:54.775Z,14.80
2018-05-15T06:01:54.487Z,14.94
2018-05-15T06:02:54.575Z,14.94
2018-05-15T06:03:54.336Z,14.88
2018-05-15T06:04:54.388Z,14.94
2018-05-15T06:05:54.188Z,15.01
2018-05-15T06:06:54.304Z,14.98
2018-05-15T06:07:54.037Z,15.01
2018-05-15T06:08:54.111Z,15.10
2018-05-15T06:09:53.889Z,15.10
2018-05-15T06:10:54.016Z,15.13
2018-05-15T06:11:53.739Z,15.15
2018-05-15T06:12:53.825Z,15.16
2018-05-15T06:13:53.593Z,15.26
2018-05-15T06:14:53.516Z,15.28
2018-05-15T06:15:53.648Z,15.31
2018-05-15T06:16:53.369Z,15.30
2018-05-15T06:17:53.451Z,15.39
2018-05-15T06:18:53.217Z,15.42
2018-05-15T06:19:53.362Z,15.34
2018-05-15T06:20:53.108Z,15.51
2018-05-15T06:21:53.175Z,15.53
2018-05-15T06:22:52.921Z,15.57
2018-05-15T06:23:52.982Z,15.49
2018-05-15T06:24:52.773Z,15.64
2018-05-15T06:25:52.893Z,15.59
2018-05-15T06:26:52.619Z,15.67
2018-05-15T06:27:52.702Z,15.78
2018-05-15T06:28:52.470Z,15.71
2018-05-15T06:29:52.612Z,15.67
2018-05-15T06:30:52.327Z,15.76
2018-05-15T06:31:52.422Z,15.68
2018-05-15T06:36:00.462Z,15.78
2018-05-15T06:37:00.390Z,15.78
2018-05-15T06:38:00.448Z,15.94
2018-05-15T06:39:00.236Z,15.96
2018-05-15T06:40:00.363Z,15.97
2018-05-15T06:41:00.084Z,16.06
2018-05-15T06:42:00.069Z,16.04
2018-05-15T06:42:59.937Z,16.08
2018-05-15T06:43:59.979Z,16.06
2018-05-15T06:44:59.789Z,16.10
2018-05-15T06:45:59.777Z,16.20
2018-05-15T06:46:59.642Z,16.15
2018-05-15T06:47:59.592Z,16.15
2018-05-15T06:48:59.496Z,16.12
2018-05-15T06:49:59.497Z,16.18
2018-05-15T06:50:59.348Z,16.25
2018-05-15T06:51:59.305Z,16.34
2018-05-15T06:52:59.196Z,16.27
2018-05-15T06:53:59.214Z,16.38
2018-05-15T06:54:59.048Z,16.33
2018-05-15T06:55:59.020Z,16.41
2018-05-15T06:56:58.899Z,16.44
2018-05-15T06:57:58.931Z,16.55
2018-05-15T06:58:58.754Z,16.62
2018-05-15T06:59:58.748Z,16.63
2018-05-15T07:00:58.608Z,16.65
2018-05-15T07:01:58.552Z,16.77
2018-05-15T07:02:58.455Z,16.84
2018-05-15T07:03:58.464Z,16.88
2018-05-15T07:04:58.318Z,16.99
2018-05-15T07:05:58.270Z,17.05
2018-05-15T07:06:58.167Z,17.03
2018-05-15T07:07:58.185Z,17.08
2018-05-15T07:08:58.021Z,17.14
2018-05-15T07:09:57.991Z,17.23
2018-05-15T07:10:57.870Z,17.23
2018-05-15T07:11:57.903Z,17.28
2018-05-15T07:12:57.723Z,17.30
2018-05-15T07:13:57.672Z,17.50
2018-05-15T07:14:57.583Z,17.53
2018-05-15T07:15:57.521Z,17.55
2018-05-15T07:16:57.429Z,17.67
2018-05-15T07:17:57.432Z,17.69
2018-05-15T07:18:57.287Z,17.67
2018-05-15T07:19:57.239Z,17.76
2018-05-15T07:20:57.137Z,17.77
2018-05-15T07:21:57.147Z,17.91
2018-05-15T07:22:56.993Z,17.91
2018-05-15T07:23:56.960Z,18.07
2018-05-15T07:24:56.842Z,18.13
2018-05-15T07:25:56.870Z,18.03
2018-05-15T07:26:56.706Z,18.19
2018-05-15T07:27:56.675Z,18.25
2018-05-15T07:28:56.554Z,18.32
2018-05-15T07:29:56.584Z,18.34
2018-05-15T07:30:56.407Z,18.42
2018-05-15T07:31:56.397Z,18.57
2018-05-15T07:32:56.265Z,18.68
2018-05-15T07:33:56.310Z,18.74
2018-05-15T07:34:56.122Z,18.79
2018-05-15T07:35:56.119Z,18.87
2018-05-15T07:36:55.976Z,18.89
2018-05-15T07:37:55.933Z,18.94
2018-05-15T07:38:55.830Z,19.05
2018-05-15T07:39:55.833Z,19.02
2018-05-15T07:40:55.689Z,19.28
2018-05-15T07:41:55.645Z,19.35
2018-05-15T07:42:55.546Z,19.28
2018-05-15T07:43:55.556Z,19.35
2018-05-15T07:44:55.399Z,19.40
2018-05-15T07:45:55.365Z,19.55
2018-05-15T07:46:55.255Z,19.61
2018-05-15T07:47:55.331Z,19.65
2018-05-15T07:48:55.111Z,19.69
2018-05-15T07:49:55.087Z,19.83
2018-05-15T07:50:54.971Z,19.83
2018-05-15T07:51:54.995Z,19.82
2018-05-15T07:52:54.827Z,19.93
2018-05-15T07:53:54.803Z,19.94
2018-05-15T07:54:54.682Z,20.00
2018-05-15T07:55:54.715Z,19.82
2018-05-15T07:56:54.544Z,19.88
2018-05-15T07:57:54.477Z,20.00
2018-05-15T07:58:54.398Z,19.95
2018-05-15T07:59:54.435Z,19.98
2018-05-15T08:00:54.254Z,20.06
2018-05-15T08:01:54.243Z,20.06
2018-05-15T08:02:54.114Z,20.10
2018-05-15T08:03:54.153Z,19.95
2018-05-15T08:04:53.977Z,19.83
2018-05-15T08:05:53.962Z,19.75
2018-05-15T08:06:53.831Z,19.80
2018-05-15T08:07:53.876Z,19.83
2018-05-15T08:08:53.694Z,19.97
2018-05-15T08:09:53.683Z,19.94
2018-05-15T08:10:53.556Z,19.98
2018-05-15T08:11:53.596Z,19.87
2018-05-15T08:12:53.411Z,19.98
2018-05-15T08:13:53.406Z,20.12
2018-05-15T08:14:53.266Z,20.01
2018-05-15T08:15:53.312Z,20.10
2018-05-15T08:16:53.127Z,20.06
2018-05-15T08:17:53.120Z,19.97
2018-05-15T08:18:52.992Z,19.91
2018-05-15T08:19:53.030Z,20.08
2018-05-15T08:20:52.847Z,20.09
2018-05-15T08:21:52.838Z,20.09
2018-05-15T08:22:52.704Z,19.87
2018-05-15T08:23:52.750Z,19.61
2018-05-15T08:24:52.564Z,19.43
2018-05-15T08:25:52.574Z,19.33
2018-05-15T08:26:52.428Z,19.27
2018-05-15T08:27:52.476Z,19.25
2018-05-15T08:28:52.284Z,19.20
2018-05-15T08:29:52.287Z,19.23
2018-05-15T08:30:52.262Z,19.20
2018-05-15T08:31:52.190Z,19.51
2018-05-15T08:32:52.004Z,19.80
2018-05-15T08:33:51.997Z,20.03
2018-05-15T08:34:51.868Z,20.20
2018-05-15T08:35:51.912Z,20.40
2018-05-15T08:36:51.724Z,20.27
2018-05-15T08:37:51.719Z,20.37
2018-05-15T08:38:51.583Z,20.50
2018-05-15T08:39:51.634Z,20.69
2018-05-15T08:40:51.445Z,20.90
2018-05-15T08:41:51.441Z,21.11
2018-05-15T08:42:51.303Z,21.19
2018-05-15T08:43:51.351Z,21.33
2018-05-15T08:44:51.159Z,21.33
2018-05-15T08:45:51.167Z,21.46
2018-05-15T08:46:51.022Z,21.56
2018-05-15T08:47:51.069Z,21.74
2018-05-15T08:48:50.884Z,21.72
2018-05-15T08:49:50.878Z,21.79
2018-05-15T08:50:50.745Z,21.66
2018-05-15T08:51:50.791Z,21.72
2018-05-15T08:52:50.614Z,21.56
2018-05-15T08:53:50.599Z,21.56
2018-05-15T08:54:50.466Z,21.57
2018-05-15T08:55:50.509Z,21.67
2018-05-15T08:56:50.328Z,21.78
2018-05-15T08:57:50.321Z,21.95
2018-05-15T08:58:50.202Z,21.94
2018-05-15T08:59:50.234Z,22.04
2018-05-15T09:00:50.053Z,22.04
2018-05-15T09:01:50.039Z,22.02
2018-05-15T09:02:49.915Z,22.04
2018-05-15T09:03:49.952Z,22.23
2018-05-15T09:04:49.780Z,22.41
2018-05-15T09:05:49.758Z,22.42
2018-05-15T09:06:49.642Z,22.44
2018-05-15T09:07:49.670Z,22.53
2018-05-15T09:08:49.506Z,22.65
2018-05-15T09:09:49.481Z,22.54
2018-05-15T09:10:49.376Z,22.53
2018-05-15T09:11:49.389Z,22.28
2018-05-15T09:12:49.231Z,21.98
2018-05-15T09:13:49.213Z,21.75
2018-05-15T09:14:49.094Z,21.75
2018-05-15T09:15:49.109Z,21.63
2018-05-15T09:16:48.957Z,21.39
2018-05-15T09:17:48.914Z,21.09
2018-05-15T09:18:48.826Z,21.08
2018-05-15T09:19:48.832Z,21.01
2018-05-15T09:20:48.689Z,21.21
2018-05-15T09:21:48.633Z,21.16
2018-05-15T09:22:48.552Z,21.06
2018-05-15T09:23:48.544Z,21.17
2018-05-15T09:24:48.409Z,20.87
2018-05-15T09:25:48.457Z,20.75
2018-05-15T09:26:48.273Z,20.65
2018-05-15T09:27:48.213Z,20.50
2018-05-15T09:28:48.135Z,20.62
2018-05-15T09:29:48.175Z,20.50
2018-05-15T09:30:48.002Z,20.61
2018-05-15T09:31:47.985Z,20.75
2018-05-15T09:32:47.864Z,20.87
2018-05-15T09:33:47.905Z,20.89
2018-05-15T09:34:47.725Z,20.83
2018-05-15T09:35:47.701Z,20.94
2018-05-15T09:36:47.589Z,20.79
2018-05-15T09:37:47.524Z,20.71
2018-05-15T09:38:47.453Z,20.50
2018-05-15T09:39:47.428Z,20.49
2018-05-15T09:40:47.311Z,20.50
2018-05-15T09:41:47.340Z,20.51
2018-05-15T09:42:47.176Z,20.57
2018-05-15T09:43:47.150Z,20.79
2018-05-15T09:44:47.045Z,20.96
2018-05-15T09:45:47.056Z,21.06
2018-05-15T09:46:46.950Z,21.23
2018-05-15T09:47:46.861Z,21.06
2018-05-15T09:48:46.771Z,21.24
2018-05-15T09:49:46.779Z,20.98
2018-05-15T09:50:46.627Z,20.86
2018-05-15T09:51:46.583Z,20.76
2018-05-15T09:52:46.484Z,21.08
2018-05-15T09:53:46.496Z,21.26
2018-05-15T09:54:46.345Z,21.35
2018-05-15T09:55:46.306Z,21.64
2018-05-15T09:56:46.214Z,22.01
2018-05-15T09:57:46.214Z,22.19
2018-05-15T09:58:46.082Z,22.19
2018-05-15T09:59:46.023Z,22.02
2018-05-15T10:00:45.942Z,22.00
2018-05-15T10:01:45.932Z,22.07
2018-05-15T10:02:45.802Z,22.28
2018-05-15T10:03:45.842Z,22.52
2018-05-15T10:04:45.661Z,22.53
2018-05-15T10:05:45.608Z,22.53
2018-05-15T10:06:45.527Z,22.41
2018-05-15T10:07:45.572Z,22.37
2018-05-15T10:08:45.392Z,22.22
2018-05-15T10:09:45.372Z,22.23
2018-05-15T10:10:45.258Z,22.46
2018-05-15T10:11:45.284Z,22.53
2018-05-15T10:12:45.123Z,22.84
2018-05-15T10:13:45.098Z,22.90
2018-05-15T10:14:44.981Z,23.17
2018-05-15T10:15:45.005Z,23.24
2018-05-15T10:16:44.852Z,23.11
2018-05-15T10:17:44.812Z,23.18
2018-05-15T10:18:44.716Z,22.93
2018-05-15T10:19:44.652Z,22.99
2018-05-15T10:20:44.569Z,22.81
2018-05-15T10:21:44.533Z,22.78
2018-05-15T10:22:44.438Z,22.62
2018-05-15T10:23:44.443Z,22.47
2018-05-15T10:24:44.310Z,22.42
2018-05-15T10:25:44.352Z,22.42
2018-05-15T10:26:44.167Z,22.41
2018-05-15T10:27:44.161Z,22.37
2018-05-15T10:28:44.041Z,22.08
2018-05-15T10:29:44.071Z,22.05
2018-05-15T10:30:43.897Z,21.97
2018-05-15T10:31:43.881Z,21.79
2018-05-15T10:32:43.761Z,21.74
2018-05-15T10:33:43.792Z,21.64
2018-05-15T10:34:43.624Z,21.42
2018-05-15T10:35:43.601Z,21.42
2018-05-15T10:36:43.493Z,21.54
2018-05-15T10:37:43.514Z,21.63
2018-05-15T10:38:43.354Z,21.85
2018-05-15T10:39:43.323Z,22.07
2018-05-15T10:40:43.221Z,22.16
2018-05-15T10:41:43.231Z,22.26
2018-05-15T10:42:43.082Z,22.32
2018-05-15T10:43:43.040Z,22.32
2018-05-15T10:44:42.945Z,22.26
2018-05-15T10:45:42.946Z,22.10
2018-05-15T10:46:42.818Z,22.16
2018-05-15T10:47:42.756Z,22.04
2018-05-15T10:48:42.676Z,21.94
2018-05-15T10:49:42.676Z,21.92
2018-05-15T10:50:42.562Z,21.81
2018-05-15T10:51:42.581Z,21.70
2018-05-15T10:52:42.407Z,21.72
2018-05-15T10:53:42.392Z,21.53
2018-05-15T10:54:42.269Z,21.38
2018-05-15T10:55:42.207Z,21.29
2018-05-15T10:56:42.134Z,21.33
2018-05-15T10:57:42.112Z,21.11
2018-05-15T10:58:41.997Z,21.02
2018-05-15T10:59:42.024Z,21.01
2018-05-15T11:00:41.859Z,20.99
2018-05-15T11:01:41.834Z,20.99
2018-05-15T11:02:41.721Z,20.91
2018-05-15T11:03:41.743Z,20.90
2018-05-15T11:04:41.586Z,20.93
2018-05-15T11:05:41.546Z,20.98
2018-05-15T11:06:41.450Z,20.89
2018-05-15T11:07:41.461Z,20.99
2018-05-15T11:08:41.311Z,21.20
2018-05-15T11:09:41.269Z,21.14
2018-05-15T11:10:41.175Z,21.39
2018-05-15T11:11:41.180Z,21.64
2018-05-15T11:12:41.097Z,21.92
2018-05-15T11:13:40.989Z,22.01
2018-05-15T11:14:40.904Z,22.02
2018-05-15T11:15:40.901Z,22.10
2018-05-15T11:16:40.763Z,22.24
2018-05-15T11:17:40.810Z,22.56
2018-05-15T11:18:40.712Z,22.79
2018-05-15T11:19:40.619Z,23.05
2018-05-15T11:20:40.495Z,23.17
2018-05-15T11:21:40.530Z,23.45
2018-05-15T11:22:40.358Z,23.53
2018-05-15T11:23:40.339Z,23.55
2018-05-15T11:24:40.214Z,23.61
2018-05-15T11:25:40.256Z,23.52
2018-05-15T11:26:40.085Z,23.56
2018-05-15T11:27:40.059Z,23.58
2018-05-15T11:28:39.948Z,23.42
2018-05-15T11:29:39.973Z,23.17
2018-05-15T11:30:39.812Z,23.17
2018-05-15T11:31:39.778Z,23.11
2018-05-15T11:32:39.681Z,22.90
2018-05-15T11:33:39.692Z,22.84
2018-05-15T11:34:39.541Z,22.72
2018-05-15T11:35:39.579Z,22.57
2018-05-15T11:36:39.406Z,22.52
2018-05-15T11:37:39.410Z,22.42
2018-05-15T11:38:39.274Z,22.31
2018-05-15T11:39:39.322Z,22.26
2018-05-15T11:40:39.136Z,22.23
2018-05-15T11:41:39.173Z,22.22
2018-05-15T11:42:39.000Z,22.35
2018-05-15T11:43:39.044Z,22.49
2018-05-15T11:44:38.865Z,22.67
2018-05-15T11:45:38.847Z,22.89
2018-05-15T11:46:38.725Z,23.00
2018-05-15T11:47:38.815Z,23.14
2018-05-15T11:48:39.175Z,23.34
2018-05-15T11:49:40.776Z,23.53
2018-05-15T11:50:39.275Z,23.65
2018-05-15T11:51:39.307Z,23.82
2018-05-15T11:52:39.123Z,24.04
2018-05-15T11:53:38.289Z,24.10
2018-05-15T11:54:38.188Z,24.11
2018-05-15T11:55:42.713Z,24.01
2018-05-15T11:56:38.052Z,23.85
2018-05-15T11:57:38.006Z,23.72
2018-05-15T11:58:37.915Z,23.56
2018-05-15T11:59:37.917Z,23.40
2018-05-15T12:00:37.783Z,23.43
2018-05-15T12:01:37.831Z,23.42
2018-05-15T12:02:37.775Z,23.48
2018-05-15T12:03:37.702Z,23.26
2018-05-15T12:04:37.520Z,23.20
2018-05-15T12:05:37.548Z,23.14
2018-05-15T12:06:37.448Z,23.04
2018-05-15T12:07:37.357Z,23.14
2018-05-15T12:08:37.245Z,23.15
2018-05-15T12:09:37.270Z,23.31
2018-05-15T12:10:37.148Z,23.42
2018-05-15T12:11:37.078Z,23.48
2018-05-15T12:12:36.978Z,23.56
2018-05-15T12:13:36.986Z,23.63
2018-05-15T12:14:36.839Z,23.65
2018-05-15T12:15:36.800Z,23.74
2018-05-15T12:16:36.710Z,23.58
2018-05-15T12:17:36.708Z,23.56
2018-05-15T12:18:36.622Z,23.52
2018-05-15T12:19:36.623Z,23.52
2018-05-15T12:20:36.444Z,23.58
2018-05-15T12:21:36.431Z,23.63
2018-05-15T12:22:36.300Z,23.56
2018-05-15T12:23:36.347Z,23.67
2018-05-15T12:24:36.244Z,23.60
2018-05-15T12:25:36.148Z,23.52
2018-05-15T12:26:36.044Z,23.31
2018-05-15T12:27:36.059Z,23.29
2018-05-15T12:28:35.902Z,23.15
2018-05-15T12:29:35.870Z,23.09
2018-05-15T12:30:35.776Z,22.90
2018-05-15T12:31:35.778Z,22.75
2018-05-15T12:32:35.640Z,22.65
2018-05-15T12:33:35.588Z,22.54
2018-05-15T12:34:35.502Z,22.54
2018-05-15T12:35:35.494Z,22.47
2018-05-15T12:36:35.363Z,22.41
2018-05-15T12:37:35.412Z,22.19
2018-05-15T12:38:35.229Z,21.97
2018-05-15T12:39:35.219Z,21.69
2018-05-15T12:40:35.099Z,21.31
2018-05-15T12:41:35.168Z,20.98
2018-05-15T12:42:34.963Z,20.87
2018-05-15T12:43:34.936Z,20.69
2018-05-15T12:44:34.826Z,20.68
2018-05-15T12:45:34.848Z,20.54
2018-05-15T12:46:34.690Z,20.53
2018-05-15T12:47:34.660Z,20.59
2018-05-15T12:48:34.558Z,20.47
2018-05-15T12:49:34.564Z,20.40
2018-05-15T12:50:34.427Z,20.28
2018-05-15T12:51:34.377Z,20.20
2018-05-15T12:52:34.279Z,20.19
2018-05-15T12:53:34.286Z,20.03
2018-05-15T12:54:34.139Z,20.01